Maersk Missouri — WAHV — position and weather

sailwx.info

Track history (hours):
 
Tides and Currents Weather Stations Pressure Air Temp Water Temp Dewpoint Dewpoint Depression Visibility Wind Speed Wind Dir Waves Ship Positions

Maersk Missouri

Owner: MAERSK LINE, LIMITED, Norfolk, VA. More information available from US FCC via Universal Licensing System and Coast Guard Vessel Documentation Center.

Last reported at 2017-Jan-19 22:32 UTC. Time now 2017-Jan-19 23:21 UTC.
Position N 29°37' W 095°00'.

Type: Cargo ship. MMSI: 369708000.

Date/timePositionNaut miles runAvg speedWind from/ knotsBaromVisibWave heightAir tempDewpointWater temp
2017-Jan-19 22:32N 29°37' W 095°00'0 0.0
2017-Jan-19 21:33N 29°37' W 095°00'0 0.0
2017-Jan-19 20:31N 29°37' W 095°00'0 0.0
2017-Jan-19 19:31N 29°37' W 095°00'0 0.0
2017-Jan-19 18:33N 29°37' W 095°00'0 0.0
2017-Jan-19 17:33N 29°37' W 095°00'0 0.0
2017-Jan-19 16:31N 29°37' W 095°00'0 0.0
2017-Jan-19 15:31N 29°37' W 095°00'0 0.0
2017-Jan-19 14:32N 29°37' W 095°00'0 0.0
2017-Jan-19 13:29N 29°37' W 095°00'0 0.0
2017-Jan-19 12:33N 29°37' W 095°00'0 0.0
2017-Jan-19 11:31N 29°37' W 095°00'0 0.0
2017-Jan-19 10:31N 29°37' W 095°00'0 0.0
2017-Jan-19 09:32N 29°37' W 095°00'0 0.0
2017-Jan-19 08:33N 29°37' W 095°00'0 0.0
2017-Jan-19 07:27N 29°37' W 095°00'0 0.0
2017-Jan-19 06:31N 29°37' W 095°00'0 0.0
2017-Jan-19 05:32N 29°37' W 095°00'0 0.0
2017-Jan-19 04:32N 29°37' W 095°00'0 0.0
2017-Jan-19 03:33N 29°37' W 095°00'0 0.0
2017-Jan-19 02:31N 29°37' W 095°00'0 0.0
2017-Jan-19 01:31N 29°37' W 095°00'0 0.0
2017-Jan-19 00:32N 29°37' W 095°00'1 0.8
2017-Jan-18 23:33N 29°37' W 095°01'6 6.4
2017-Jan-18 22:33N 29°33' W 094°55'10 9.5
2017-Jan-18 21:33N 29°25' W 094°50'  
2017-Jan-16 00:00N 25°12' W 086°06'32614.9 090 / 191020.910.8 25.018.123.7
2017-Jan-15 02:03N 25°12' W 080°06'713.6
2017-Jan-15 01:33N 25°19' W 080°03'1514.7
2017-Jan-15 00:34N 25°33' W 080°02'1312.9
2017-Jan-14 23:33N 25°46' W 080°06'4 3.5
2017-Jan-14 22:33N 25°46' W 080°10'0 0.0
2017-Jan-14 21:33N 25°46' W 080°10'0 0.0
2017-Jan-14 20:31N 25°46' W 080°10'0 0.0
2017-Jan-14 19:32N 25°46' W 080°10'0 0.0
2017-Jan-14 18:32N 25°46' W 080°10'0 0.0
2017-Jan-14 17:33N 25°46' W 080°10'0 0.0
2017-Jan-14 16:34N 25°46' W 080°10'0 0.0
2017-Jan-14 15:31N 25°46' W 080°10'0 0.0
2017-Jan-14 14:32N 25°46' W 080°10'0 0.0
2017-Jan-14 13:33N 25°46' W 080°10'0 0.0
2017-Jan-14 12:33N 25°46' W 080°10'0 0.0
2017-Jan-14 11:31N 25°46' W 080°10'0 0.0
2017-Jan-14 10:32N 25°46' W 080°10'0 0.0
2017-Jan-14 09:32N 25°46' W 080°10'0 0.0
2017-Jan-14 08:33N 25°46' W 080°10'1 1.2
2017-Jan-14 07:33N 25°46' W 080°08'8 7.8
2017-Jan-14 06:33N 25°49' W 080°01'1010.1
2017-Jan-14 05:33N 25°59' W 079°59'1414.4
2017-Jan-14 04:34N 26°14' W 079°59'1514.6
2017-Jan-14 03:34N 26°28' W 079°58'50410.2
2017-Jan-12 02:24N 34°17' W 076°23'1517.2
2017-Jan-12 01:33N 34°26' W 076°10'14414.4
2017-Jan-11 15:33N 36°49' W 075°47'9 9.4
2017-Jan-11 14:33N 36°55' W 075°56'1312.5
2017-Jan-11 13:33N 36°60' W 076°11'9 9.3
2017-Jan-11 12:33N 36°54' W 076°20'2 2.4
2017-Jan-11 11:33N 36°51' W 076°19'0 0.0
2017-Jan-11 09:31N 36°51' W 076°19'0 0.0
2017-Jan-11 08:33N 36°51' W 076°19'0 0.0
2017-Jan-11 07:33N 36°51' W 076°19'0 0.0
2017-Jan-11 06:32N 36°51' W 076°19'0 0.0
2017-Jan-11 05:32N 36°51' W 076°19'0 0.0
2017-Jan-11 04:33N 36°51' W 076°19'0 0.0
2017-Jan-11 03:31N 36°51' W 076°19'0 0.0
2017-Jan-11 02:31N 36°51' W 076°19'0 0.0
2017-Jan-11 01:32N 36°51' W 076°19'0 0.0
2017-Jan-10 22:25N 36°51' W 076°19'0 0.0
2017-Jan-10 20:32N 36°51' W 076°19'0 0.0
2017-Jan-10 19:33N 36°51' W 076°19'0 0.0
2017-Jan-10 18:31N 36°51' W 076°19'0 0.0
2017-Jan-10 17:31N 36°51' W 076°19'0 0.0
2017-Jan-10 16:26N 36°51' W 076°19'0 0.0
2017-Jan-10 15:30N 36°51' W 076°19'3 3.7
2017-Jan-10 14:33N 36°55' W 076°20'1110.7
2017-Jan-10 13:33N 36°59' W 076°08'1211.7
2017-Jan-10 12:33N 36°55' W 075°54'10 8.2
2017-Jan-10 11:20N 36°49' W 075°44'  
Track history (hours):
 
Tides and Currents Weather Stations Pressure Air Temp Water Temp Dewpoint Dewpoint Depression Visibility Wind Speed Wind Dir Waves Ship Positions

Maersk Missouri

Owner: MAERSK LINE, LIMITED, Norfolk, VA. More information available from US FCC via Universal Licensing System and Coast Guard Vessel Documentation Center.

Last reported at 2017-Jan-19 22:32 UTC. Time now 2017-Jan-19 23:21 UTC.
Position N 29°37' W 095°00'.

Type: Cargo ship. MMSI: 369708000.

Date/timePositionNaut miles runAvg speedWind from/ knotsBaromVisibWave heightAir tempDewpointWater temp
2017-Jan-19 22:32N 29°37' W 095°00'0 0.0
2017-Jan-19 21:33N 29°37' W 095°00'0 0.0
2017-Jan-19 20:31N 29°37' W 095°00'0 0.0
2017-Jan-19 19:31N 29°37' W 095°00'0 0.0
2017-Jan-19 18:33N 29°37' W 095°00'0 0.0
2017-Jan-19 17:33N 29°37' W 095°00'0 0.0
2017-Jan-19 16:31N 29°37' W 095°00'0 0.0
2017-Jan-19 15:31N 29°37' W 095°00'0 0.0
2017-Jan-19 14:32N 29°37' W 095°00'0 0.0
2017-Jan-19 13:29N 29°37' W 095°00'0 0.0
2017-Jan-19 12:33N 29°37' W 095°00'0 0.0
2017-Jan-19 11:31N 29°37' W 095°00'0 0.0
2017-Jan-19 10:31N 29°37' W 095°00'0 0.0
2017-Jan-19 09:32N 29°37' W 095°00'0 0.0
2017-Jan-19 08:33N 29°37' W 095°00'0 0.0
2017-Jan-19 07:27N 29°37' W 095°00'0 0.0
2017-Jan-19 06:31N 29°37' W 095°00'0 0.0
2017-Jan-19 05:32N 29°37' W 095°00'0 0.0
2017-Jan-19 04:32N 29°37' W 095°00'0 0.0
2017-Jan-19 03:33N 29°37' W 095°00'0 0.0
2017-Jan-19 02:31N 29°37' W 095°00'0 0.0
2017-Jan-19 01:31N 29°37' W 095°00'0 0.0
2017-Jan-19 00:32N 29°37' W 095°00'1 0.8
2017-Jan-18 23:33N 29°37' W 095°01'6 6.4
2017-Jan-18 22:33N 29°33' W 094°55'10 9.5
2017-Jan-18 21:33N 29°25' W 094°50'  
2017-Jan-16 00:00N 25°12' W 086°06'32614.9 090 / 191020.910.8 25.018.123.7
2017-Jan-15 02:03N 25°12' W 080°06'713.6
2017-Jan-15 01:33N 25°19' W 080°03'1514.7
2017-Jan-15 00:34N 25°33' W 080°02'1312.9
2017-Jan-14 23:33N 25°46' W 080°06'4 3.5
2017-Jan-14 22:33N 25°46' W 080°10'0 0.0
2017-Jan-14 21:33N 25°46' W 080°10'0 0.0
2017-Jan-14 20:31N 25°46' W 080°10'0 0.0
2017-Jan-14 19:32N 25°46' W 080°10'0 0.0
2017-Jan-14 18:32N 25°46' W 080°10'0 0.0
2017-Jan-14 17:33N 25°46' W 080°10'0 0.0
2017-Jan-14 16:34N 25°46' W 080°10'0 0.0
2017-Jan-14 15:31N 25°46' W 080°10'0 0.0
2017-Jan-14 14:32N 25°46' W 080°10'0 0.0
2017-Jan-14 13:33N 25°46' W 080°10'0 0.0
2017-Jan-14 12:33N 25°46' W 080°10'0 0.0
2017-Jan-14 11:31N 25°46' W 080°10'0 0.0
2017-Jan-14 10:32N 25°46' W 080°10'0 0.0
2017-Jan-14 09:32N 25°46' W 080°10'0 0.0
2017-Jan-14 08:33N 25°46' W 080°10'1 1.2
2017-Jan-14 07:33N 25°46' W 080°08'8 7.8
2017-Jan-14 06:33N 25°49' W 080°01'1010.1
2017-Jan-14 05:33N 25°59' W 079°59'1414.4
2017-Jan-14 04:34N 26°14' W 079°59'1514.6
2017-Jan-14 03:34N 26°28' W 079°58'50410.2
2017-Jan-12 02:24N 34°17' W 076°23'1517.2
2017-Jan-12 01:33N 34°26' W 076°10'14414.4
2017-Jan-11 15:33N 36°49' W 075°47'9 9.4
2017-Jan-11 14:33N 36°55' W 075°56'1312.5
2017-Jan-11 13:33N 36°60' W 076°11'9 9.3
2017-Jan-11 12:33N 36°54' W 076°20'2 2.4
2017-Jan-11 11:33N 36°51' W 076°19'0 0.0
2017-Jan-11 09:31N 36°51' W 076°19'0 0.0
2017-Jan-11 08:33N 36°51' W 076°19'0 0.0
2017-Jan-11 07:33N 36°51' W 076°19'0 0.0
2017-Jan-11 06:32N 36°51' W 076°19'0 0.0
2017-Jan-11 05:32N 36°51' W 076°19'0 0.0
2017-Jan-11 04:33N 36°51' W 076°19'0 0.0
2017-Jan-11 03:31N 36°51' W 076°19'0 0.0
2017-Jan-11 02:31N 36°51' W 076°19'0 0.0
2017-Jan-11 01:32N 36°51' W 076°19'0 0.0
2017-Jan-10 22:25N 36°51' W 076°19'0 0.0
2017-Jan-10 20:32N 36°51' W 076°19'0 0.0
2017-Jan-10 19:33N 36°51' W 076°19'0 0.0
2017-Jan-10 18:31N 36°51' W 076°19'0 0.0
2017-Jan-10 17:31N 36°51' W 076°19'0 0.0
2017-Jan-10 16:26N 36°51' W 076°19'0 0.0
2017-Jan-10 15:30N 36°51' W 076°19'3 3.7
2017-Jan-10 14:33N 36°55' W 076°20'1110.7
2017-Jan-10 13:33N 36°59' W 076°08'1211.7
2017-Jan-10 12:33N 36°55' W 075°54'10 8.2
2017-Jan-10 11:20N 36°49' W 075°44'  

Dump ship's entire track history